Terminal Aerodrome Forecast
Issued by NWS

Home | Current Version | Previous Version | Text Only | Print | Product List | Glossary On
Versions: 1 2 3 4 5 6 7 8 9 10 11 12 13 14 15 16 17 18 19 20 21 22 23 24 25 26 27 28 29 30 31 32 33 34 35 36 37 38 39 40 41 42 43 44 45 46 47 48 49 50
810
FTUS41 KCTP 301842 AAB
TAFLNS
TAF AMD
KLNS 301842Z 3019/3118 04005KT 6SM -TSRA BR VCTS SCT023 BKN045CB
      OVC060
      TEMPO 3019/3021 1 1/2SM +TSRA BKN035CB
     FM302100 14006KT 4SM -TSRA HZ OVC050CB
     FM310900 13002KT 1 1/2SM BR BKN007
     FM311500 24003KT 6SM HZ BKN050=

USA.gov is the U.S. government's official web portal to all federal, state and local government web resources and services.